ΕΜΥ, Εθνική Μετεωρολογική Υπηρεσία - Δελτία Καιρού, Προγνώσεις

ΑΕΡΟΝΑΥΤΙΛΙΑ

GREEK AIRPORTS CODES

LGAV 020020Z 30010KT 9999 FEW020 BKN035 12/03 Q1008 RMK FEW100 NOSIG=

EUROPEAN AIRPORTS CODES

LIRF 020020Z 06004KT CAVOK 03/M04 Q1015 NOSIG=